createdAt,value
2023-04-28T00:02:03.143Z,50.94
2023-04-28T00:04:29.798Z,50.83
2023-04-28T00:06:56.635Z,51.26
2023-04-28T00:09:23.051Z,51.39
2023-04-28T00:11:49.606Z,51.01
2023-04-28T00:14:16.248Z,50.71
2023-04-28T00:16:43.046Z,50.84
2023-04-28T00:19:09.735Z,50.68
2023-04-28T00:21:36.147Z,50.97
2023-04-28T00:24:02.550Z,50.91
2023-04-28T00:26:28.966Z,50.53
2023-04-28T00:28:55.409Z,50.51
2023-04-28T00:31:21.924Z,50.36
2023-04-28T00:33:48.356Z,50.42
2023-04-28T00:36:14.808Z,49.95
2023-04-28T00:38:41.226Z,49.97
2023-04-28T00:41:09.907Z,49.81
2023-04-28T00:43:49.422Z,50.20
2023-04-28T00:46:28.593Z,50.18
2023-04-28T00:48:55.509Z,50.10
2023-04-28T00:51:22.179Z,50.54
2023-04-28T00:53:48.801Z,50.80
2023-04-28T00:56:15.624Z,50.42
2023-04-28T00:58:42.931Z,50.00
2023-04-28T01:01:10.752Z,50.54
2023-04-28T01:03:39.657Z,50.46
2023-04-28T01:06:07.470Z,50.45
2023-04-28T01:08:35.574Z,51.20
2023-04-28T01:11:02.128Z,51.40
2023-04-28T01:13:28.975Z,51.58
2023-04-28T01:15:56.203Z,51.82
2023-04-28T01:18:22.918Z,51.97
2023-04-28T01:20:49.374Z,51.97
2023-04-28T01:23:16.706Z,52.06
2023-04-28T01:25:43.456Z,52.38
2023-04-28T01:28:10.876Z,51.84
2023-04-28T01:30:37.491Z,52.40
2023-04-28T01:33:03.986Z,51.99
2023-04-28T01:35:31.042Z,52.63
2023-04-28T01:37:57.515Z,52.82
2023-04-28T01:40:23.982Z,53.29
2023-04-28T01:42:51.003Z,53.45
2023-04-28T01:45:17.410Z,53.65
2023-04-28T01:47:43.969Z,53.13
2023-04-28T01:50:11.396Z,53.24
2023-04-28T01:52:37.957Z,53.41
2023-04-28T01:55:04.921Z,53.43
2023-04-28T01:57:31.764Z,53.43
2023-04-28T01:59:59.587Z,53.53
2023-04-28T02:02:26.302Z,53.38
2023-04-28T02:04:52.960Z,53.60
2023-04-28T02:07:19.445Z,53.47
2023-04-28T02:09:46.211Z,53.19
2023-04-28T02:12:12.656Z,53.69
2023-04-28T02:14:39.516Z,53.22
2023-04-28T02:17:06.088Z,53.55
2023-04-28T02:19:32.520Z,53.22
2023-04-28T02:21:58.985Z,53.13
2023-04-28T02:24:25.471Z,53.38
2023-04-28T02:26:51.903Z,53.73
2023-04-28T02:29:18.305Z,53.98
2023-04-28T02:31:44.762Z,53.99
2023-04-28T02:34:11.385Z,53.82
2023-04-28T02:36:39.200Z,53.88
2023-04-28T02:39:05.689Z,54.12
2023-04-28T02:41:34.569Z,54.30
2023-04-28T02:44:01.041Z,54.37
2023-04-28T02:46:27.438Z,54.88
2023-04-28T02:48:53.903Z,54.49
2023-04-28T02:51:20.571Z,54.69
2023-04-28T02:53:47.068Z,55.01
2023-04-28T02:56:13.539Z,55.20
2023-04-28T02:58:40.001Z,55.54
2023-04-28T03:01:06.431Z,55.11
2023-04-28T03:03:33.609Z,55.10
2023-04-28T03:06:00.198Z,55.90
2023-04-28T03:08:26.866Z,56.31
2023-04-28T03:10:53.298Z,56.19
2023-04-28T03:13:19.791Z,56.17
2023-04-28T03:15:46.184Z,56.05
2023-04-28T03:18:12.577Z,56.21
2023-04-28T03:20:39.021Z,56.46
2023-04-28T03:23:05.474Z,56.83
2023-04-28T03:25:32.055Z,56.31
2023-04-28T03:27:58.481Z,56.40
2023-04-28T03:30:24.901Z,56.94
2023-04-28T03:32:51.422Z,57.43
2023-04-28T03:35:17.974Z,57.46
2023-04-28T03:37:44.587Z,56.96
2023-04-28T03:40:11.762Z,57.21
2023-04-28T03:42:38.161Z,56.88
2023-04-28T03:45:04.866Z,56.76
2023-04-28T03:47:31.320Z,57.30
2023-04-28T03:49:58.870Z,56.93
2023-04-28T03:52:26.015Z,57.02
2023-04-28T03:54:52.472Z,56.80
2023-04-28T03:57:18.951Z,57.09
2023-04-28T03:59:45.894Z,57.54
2023-04-28T04:02:12.359Z,57.39
2023-04-28T04:04:39.147Z,57.32
2023-04-28T04:07:06.329Z,57.32
2023-04-28T04:09:32.782Z,57.47
2023-04-28T04:11:59.193Z,57.52
2023-04-28T04:14:25.773Z,57.38
2023-04-28T04:16:52.243Z,56.89
2023-04-28T04:19:18.715Z,56.65
2023-04-28T04:21:45.129Z,56.24
2023-04-28T04:24:11.616Z,56.50
2023-04-28T04:26:38.022Z,56.23
2023-04-28T04:29:04.558Z,55.89
2023-04-28T04:31:31.047Z,55.72
2023-04-28T04:33:57.872Z,55.78
2023-04-28T04:36:24.313Z,55.66
2023-04-28T04:38:52.484Z,55.64
2023-04-28T04:41:20.770Z,55.86
2023-04-28T04:43:47.233Z,55.86
2023-04-28T04:46:13.972Z,55.64
2023-04-28T04:48:40.434Z,55.61
2023-04-28T04:51:07.082Z,55.89
2023-04-28T04:53:33.494Z,55.46
2023-04-28T04:56:00.696Z,55.69
2023-04-28T04:58:27.209Z,55.59
2023-04-28T05:00:53.607Z,55.73
2023-04-28T05:03:20.501Z,55.53
2023-04-28T05:05:47.151Z,56.05
2023-04-28T05:08:13.732Z,55.82
2023-04-28T05:10:40.387Z,55.91
2023-04-28T05:13:07.065Z,56.23
2023-04-28T05:15:33.498Z,55.91
2023-04-28T05:18:00.157Z,56.20
2023-04-28T05:20:26.662Z,56.20
2023-04-28T05:22:53.112Z,56.46
2023-04-28T05:25:19.550Z,56.69
2023-04-28T05:27:46.348Z,57.12
2023-04-28T05:30:13.050Z,57.01
2023-04-28T05:32:39.549Z,56.79
2023-04-28T05:35:06.309Z,57.07
2023-04-28T05:37:32.720Z,58.28
2023-04-28T05:39:59.162Z,60.51
2023-04-28T05:42:25.592Z,61.34
2023-04-28T05:44:52.018Z,63.19
2023-04-28T05:47:18.493Z,64.11
2023-04-28T05:49:44.983Z,65.94
2023-04-28T05:52:11.437Z,66.09
2023-04-28T05:54:37.963Z,67.02
2023-04-28T05:57:04.530Z,68.08
2023-04-28T05:59:31.525Z,67.52
2023-04-28T06:01:57.976Z,68.15
2023-04-28T06:04:25.387Z,69.96
2023-04-28T06:06:52.413Z,69.65
2023-04-28T06:09:19.130Z,69.38
2023-04-28T06:11:45.761Z,69.70
2023-04-28T06:14:12.176Z,70.55
2023-04-28T06:16:38.658Z,70.47
2023-04-28T06:19:05.306Z,70.73
2023-04-28T06:21:32.306Z,70.79
2023-04-28T06:23:58.821Z,70.24
2023-04-28T06:26:25.490Z,70.23
2023-04-28T06:28:52.195Z,70.57
2023-04-28T06:31:18.721Z,69.69
2023-04-28T06:33:45.212Z,69.87
2023-04-28T06:36:13.978Z,69.43
2023-04-28T06:38:42.973Z,69.57
2023-04-28T06:41:11.541Z,70.58
2023-04-28T06:43:38.209Z,69.94
2023-04-28T06:46:04.759Z,69.86
2023-04-28T06:48:31.545Z,69.95
2023-04-28T06:50:58.072Z,69.77
2023-04-28T06:53:24.496Z,70.47
2023-04-28T06:55:51.492Z,69.94
2023-04-28T06:58:17.965Z,69.92
2023-04-28T07:00:44.528Z,70.31
2023-04-28T07:03:11.502Z,70.04
2023-04-28T07:05:38.107Z,70.36
2023-04-28T07:08:04.782Z,70.66
2023-04-28T07:10:31.264Z,69.88
2023-04-28T07:12:59.051Z,69.77
2023-04-28T07:15:25.529Z,69.48
2023-04-28T07:17:52.098Z,69.38
2023-04-28T07:20:18.716Z,69.31
2023-04-28T07:22:45.198Z,69.08
2023-04-28T07:25:11.815Z,69.82
2023-04-28T07:27:38.521Z,70.37
2023-04-28T07:30:18.572Z,70.55
2023-04-28T07:32:52.193Z,70.42
2023-04-28T07:35:18.730Z,70.28
2023-04-28T07:37:45.193Z,70.15
2023-04-28T07:40:11.779Z,70.35
2023-04-28T07:42:38.155Z,70.25
2023-04-28T07:45:05.537Z,70.28
2023-04-28T07:47:31.967Z,70.75
2023-04-28T07:50:00.607Z,70.13
2023-04-28T07:52:27.386Z,70.66
2023-04-28T07:54:53.981Z,70.90
2023-04-28T07:57:20.430Z,71.00
2023-04-28T07:59:46.832Z,71.49
2023-04-28T08:02:14.272Z,71.13
2023-04-28T08:04:41.346Z,71.19
2023-04-28T08:07:09.166Z,71.33
2023-04-28T08:09:36.189Z,72.09
2023-04-28T08:12:02.602Z,71.46
2023-04-28T08:14:29.476Z,71.36
2023-04-28T08:16:56.806Z,71.61
2023-04-28T08:19:23.230Z,71.50
2023-04-28T08:21:49.653Z,71.57
2023-04-28T08:24:16.259Z,71.86
2023-04-28T08:26:42.851Z,72.10
2023-04-28T08:29:09.276Z,72.13
2023-04-28T08:31:35.780Z,72.40
2023-04-28T08:34:02.641Z,73.67
2023-04-28T08:36:32.472Z,73.16
2023-04-28T08:38:59.674Z,76.69
2023-04-28T08:41:29.977Z,73.68
2023-04-28T08:43:56.797Z,73.92
2023-04-28T08:46:24.012Z,73.76
2023-04-28T08:48:52.129Z,73.74
2023-04-28T08:51:29.703Z,74.17
2023-04-28T08:54:22.364Z,73.38
2023-04-28T08:56:46.486Z,74.11
2023-04-28T08:59:13.284Z,73.40
2023-04-28T09:01:39.803Z,73.93
2023-04-28T09:04:06.759Z,73.96
2023-04-28T09:06:37.550Z,75.11
2023-04-28T09:09:25.475Z,75.70
2023-04-28T09:12:02.361Z,74.63
2023-04-28T09:14:30.017Z,74.93
2023-04-28T09:16:56.747Z,74.91
2023-04-28T09:19:23.344Z,75.09
2023-04-28T09:21:52.736Z,75.27
2023-04-28T09:24:33.498Z,76.73
2023-04-28T09:27:04.543Z,76.16
2023-04-28T09:29:31.787Z,76.00
2023-04-28T09:32:18.639Z,77.10
2023-04-28T09:34:52.142Z,77.22
2023-04-28T09:37:20.301Z,77.36
2023-04-28T09:39:56.045Z,78.40
2023-04-28T09:42:36.372Z,78.75
2023-04-28T09:45:07.041Z,78.45
2023-04-28T09:47:36.177Z,78.77
2023-04-28T09:50:05.058Z,79.03
2023-04-28T09:52:33.182Z,79.20
2023-04-28T09:55:01.898Z,79.29
2023-04-28T09:57:32.365Z,79.15
2023-04-28T09:59:59.316Z,79.80
2023-04-28T10:05:03.485Z,79.78
2023-04-28T10:07:34.999Z,80.51
2023-04-28T10:10:02.056Z,80.58
2023-04-28T10:12:28.675Z,80.73
2023-04-28T10:14:55.095Z,80.85
2023-04-28T10:17:22.554Z,81.14
2023-04-28T10:19:52.895Z,81.76
2023-04-28T10:22:59.821Z,82.40
2023-04-28T10:25:27.216Z,84.44
2023-04-28T10:27:53.880Z,82.27
2023-04-28T10:30:28.184Z,81.67
2023-04-28T10:33:13.761Z,81.63
2023-04-28T10:35:42.933Z,82.16
2023-04-28T10:38:14.064Z,82.23
2023-04-28T10:40:44.747Z,82.36
2023-04-28T10:43:12.936Z,82.48
2023-04-28T10:45:56.400Z,82.74
2023-04-28T10:48:46.436Z,82.63
2023-04-28T10:51:15.848Z,82.75
2023-04-28T10:53:45.625Z,83.03
2023-04-28T10:56:18.510Z,83.26
2023-04-28T10:58:55.401Z,83.21
2023-04-28T11:01:22.067Z,84.02
2023-04-28T11:03:52.411Z,83.39
2023-04-28T11:06:23.805Z,82.41
2023-04-28T11:08:50.281Z,83.61
2023-04-28T11:11:21.774Z,83.98
2023-04-28T11:13:49.242Z,83.91
2023-04-28T11:16:26.486Z,83.82
2023-04-28T11:18:59.214Z,84.28
2023-04-28T11:21:28.246Z,84.28
2023-04-28T11:23:55.041Z,84.10
2023-04-28T11:26:21.497Z,84.31
2023-04-28T11:28:55.923Z,84.21
2023-04-28T11:31:24.298Z,82.70
2023-04-28T11:34:08.073Z,83.45
2023-04-28T11:36:36.637Z,82.01
2023-04-28T11:39:08.218Z,82.94
2023-04-28T11:41:36.358Z,83.18
2023-04-28T11:44:17.566Z,82.64
2023-04-28T11:46:56.139Z,84.38
2023-04-28T11:49:29.160Z,84.62
2023-04-28T11:51:56.711Z,84.18
2023-04-28T11:54:28.031Z,84.66
2023-04-28T11:56:55.831Z,84.37
2023-04-28T11:59:30.989Z,84.39
2023-04-28T12:01:59.504Z,84.76
2023-04-28T12:04:37.809Z,85.09
2023-04-28T12:07:11.921Z,85.51
2023-04-28T12:09:40.063Z,85.48
2023-04-28T12:12:11.966Z,85.22
2023-04-28T12:14:59.344Z,85.53
2023-04-28T12:17:38.033Z,84.93
2023-04-28T12:20:10.030Z,84.93
2023-04-28T12:22:47.508Z,85.55
2023-04-28T12:25:16.605Z,85.89
2023-04-28T12:28:05.519Z,86.06
2023-04-28T12:30:41.745Z,86.65
2023-04-28T12:33:27.630Z,87.48
2023-04-28T12:35:55.431Z,86.76
2023-04-28T12:38:25.614Z,86.37
2023-04-28T12:40:52.833Z,86.42
2023-04-28T12:43:19.385Z,87.10
2023-04-28T12:45:45.895Z,87.44
2023-04-28T12:48:12.353Z,86.87
2023-04-28T12:50:38.948Z,88.02
2023-04-28T12:53:05.417Z,88.27
2023-04-28T12:55:32.096Z,87.96
2023-04-28T12:57:59.382Z,87.79
2023-04-28T13:00:26.384Z,88.07
2023-04-28T13:02:53.364Z,88.32
2023-04-28T13:05:19.998Z,88.34
2023-04-28T13:07:47.468Z,88.81
2023-04-28T13:10:13.956Z,88.97
2023-04-28T13:12:41.259Z,89.55
2023-04-28T13:15:08.473Z,88.73
2023-04-28T13:17:35.269Z,87.75
2023-04-28T13:20:03.675Z,87.75
2023-04-28T13:22:30.150Z,87.59
2023-04-28T13:24:56.591Z,87.00
2023-04-28T13:27:23.191Z,87.79
2023-04-28T13:29:49.620Z,88.24
2023-04-28T13:32:16.364Z,87.93
2023-04-28T13:34:43.073Z,88.18
2023-04-28T13:37:09.694Z,89.80
2023-04-28T13:39:36.241Z,88.99
2023-04-28T13:42:02.677Z,88.99
2023-04-28T13:44:29.089Z,89.06
2023-04-28T13:46:56.453Z,89.02
2023-04-28T13:49:23.776Z,89.76
2023-04-28T13:51:50.314Z,89.05
2023-04-28T13:54:16.805Z,89.29
2023-04-28T13:56:43.209Z,89.56
2023-04-28T13:59:09.680Z,89.66
2023-04-28T14:01:36.362Z,89.53
2023-04-28T14:04:03.385Z,89.89
2023-04-28T14:06:30.033Z,90.99
2023-04-28T14:08:56.966Z,90.05
2023-04-28T14:11:23.360Z,89.20
2023-04-28T14:13:49.803Z,89.99
2023-04-28T14:16:16.490Z,90.00
2023-04-28T14:18:42.913Z,90.75
2023-04-28T14:21:09.380Z,90.80
2023-04-28T14:23:35.863Z,90.58
2023-04-28T14:26:02.471Z,90.42
2023-04-28T14:28:29.068Z,90.37
2023-04-28T14:30:55.557Z,90.37
2023-04-28T14:33:22.200Z,89.97
2023-04-28T14:35:48.796Z,89.21
2023-04-28T14:38:15.257Z,89.54
2023-04-28T14:40:43.010Z,89.27
2023-04-28T14:43:09.488Z,88.69
2023-04-28T14:45:37.061Z,89.05
2023-04-28T14:48:03.849Z,89.74
2023-04-28T14:50:30.678Z,90.19
2023-04-28T14:52:59.944Z,91.08
2023-04-28T14:55:26.393Z,91.29
2023-04-28T14:57:52.950Z,90.58
2023-04-28T15:00:19.477Z,91.10
2023-04-28T15:02:46.052Z,91.81
2023-04-28T15:05:12.722Z,91.56
2023-04-28T15:07:39.278Z,91.63
2023-04-28T15:10:06.216Z,91.62
2023-04-28T15:12:34.243Z,91.39
2023-04-28T15:15:00.744Z,91.33
2023-04-28T15:17:27.853Z,91.52
2023-04-28T15:19:54.263Z,91.32
2023-04-28T15:22:21.819Z,91.04
2023-04-28T15:24:48.653Z,91.85
2023-04-28T15:27:15.351Z,92.12
2023-04-28T15:29:41.935Z,91.87
2023-04-28T15:32:08.644Z,91.75
2023-04-28T15:34:35.221Z,92.87
2023-04-28T15:37:03.719Z,92.03
2023-04-28T15:39:30.213Z,92.41
2023-04-28T15:41:56.602Z,92.47
2023-04-28T15:44:23.205Z,92.82
2023-04-28T15:46:51.787Z,92.43
2023-04-28T15:49:18.331Z,92.48
2023-04-28T15:51:45.588Z,93.37
2023-04-28T15:54:12.015Z,92.65
2023-04-28T15:56:38.435Z,93.04
2023-04-28T15:59:04.943Z,92.88
2023-04-28T16:01:31.404Z,92.81
2023-04-28T16:03:58.154Z,93.05
2023-04-28T16:06:25.579Z,93.72
2023-04-28T16:08:52.130Z,93.19
2023-04-28T16:11:20.324Z,93.18
2023-04-28T16:13:47.089Z,92.94
2023-04-28T16:16:13.648Z,92.43
2023-04-28T16:18:40.118Z,92.69
2023-04-28T16:21:06.742Z,92.21
2023-04-28T16:23:33.506Z,91.98
2023-04-28T16:26:00.014Z,92.46
2023-04-28T16:28:26.998Z,92.01
2023-04-28T16:30:53.445Z,91.99
2023-04-28T16:33:19.866Z,91.92
2023-04-28T16:35:53.791Z,91.65
2023-04-28T16:38:20.678Z,91.74
2023-04-28T16:40:47.347Z,92.13
2023-04-28T16:43:14.280Z,91.53
2023-04-28T16:45:41.362Z,91.43
2023-04-28T16:48:08.422Z,91.67
2023-04-28T16:50:34.912Z,91.54
2023-04-28T16:53:01.318Z,91.05
2023-04-28T16:55:27.755Z,91.39
2023-04-28T16:57:54.200Z,91.61
2023-04-28T17:00:21.221Z,91.03
2023-04-28T17:02:47.721Z,90.86
2023-04-28T17:05:14.329Z,91.30
2023-04-28T17:07:41.231Z,91.92
2023-04-28T17:10:08.203Z,91.49
2023-04-28T17:12:34.645Z,91.40
2023-04-28T17:15:01.352Z,91.08
2023-04-28T17:17:29.213Z,91.36
2023-04-28T17:19:56.933Z,91.65
2023-04-28T17:22:23.373Z,91.66
2023-04-28T17:24:49.823Z,91.13
2023-04-28T17:27:16.240Z,91.23
2023-04-28T17:29:43.557Z,91.34
2023-04-28T17:32:11.030Z,91.24
2023-04-28T17:34:37.489Z,90.92
2023-04-28T17:37:04.034Z,91.47
2023-04-28T17:39:30.484Z,91.80
2023-04-28T17:41:58.116Z,91.66
2023-04-28T17:44:24.595Z,91.21
2023-04-28T17:46:51.278Z,90.42
2023-04-28T17:49:17.788Z,91.04
2023-04-28T17:51:44.258Z,91.02
2023-04-28T17:54:10.809Z,90.33
2023-04-28T17:56:38.270Z,90.49
2023-04-28T17:59:05.183Z,90.97
2023-04-28T18:01:35.213Z,90.24
2023-04-28T18:04:02.027Z,90.95
2023-04-28T18:06:29.857Z,90.69
2023-04-28T18:08:56.352Z,91.01
2023-04-28T18:11:23.377Z,90.94
2023-04-28T18:13:50.138Z,90.45
2023-04-28T18:16:16.981Z,90.41
2023-04-28T18:18:43.763Z,90.10
2023-04-28T18:21:10.282Z,90.29
2023-04-28T18:23:36.736Z,90.45
2023-04-28T18:26:03.430Z,90.57
2023-04-28T18:28:29.941Z,90.43
2023-04-28T18:30:56.308Z,90.64
2023-04-28T18:33:25.835Z,90.42
2023-04-28T18:36:00.339Z,90.37
2023-04-28T18:38:26.941Z,90.75
2023-04-28T18:40:53.398Z,91.17
2023-04-28T18:43:19.867Z,91.33
2023-04-28T18:45:47.506Z,91.37
2023-04-28T18:48:14.122Z,91.65
2023-04-28T18:50:40.670Z,91.38
2023-04-28T18:53:10.221Z,91.97
2023-04-28T18:55:37.033Z,91.90
2023-04-28T18:58:03.919Z,91.56
2023-04-28T19:00:30.970Z,91.83
2023-04-28T19:02:57.796Z,91.95
2023-04-28T19:05:24.644Z,92.06
2023-04-28T19:07:51.105Z,91.70
2023-04-28T19:10:17.663Z,91.16
2023-04-28T19:12:44.069Z,91.46
2023-04-28T19:15:10.810Z,91.66
2023-04-28T19:17:37.316Z,91.56
2023-04-28T19:20:04.213Z,91.16
2023-04-28T19:22:38.765Z,91.46
2023-04-28T19:25:06.769Z,91.17
2023-04-28T19:27:34.973Z,90.92
2023-04-28T19:30:02.345Z,90.63
2023-04-28T19:32:30.314Z,90.55
2023-04-28T19:34:57.473Z,90.47
2023-04-28T19:37:25.177Z,90.54
2023-04-28T19:39:52.336Z,90.83
2023-04-28T19:42:18.977Z,90.33
2023-04-28T19:44:46.125Z,90.21
2023-04-28T19:47:12.963Z,90.20
2023-04-28T19:49:41.401Z,90.06
2023-04-28T19:52:10.172Z,89.26
2023-04-28T19:54:38.781Z,89.04
2023-04-28T19:57:05.453Z,88.87
2023-04-28T19:59:32.007Z,89.33
2023-04-28T20:01:58.634Z,88.99
2023-04-28T20:04:25.633Z,89.47
2023-04-28T20:06:52.333Z,89.31
2023-04-28T20:09:18.851Z,89.05
2023-04-28T20:11:45.295Z,89.46
2023-04-28T20:14:11.927Z,88.98
2023-04-28T20:16:38.394Z,89.20
2023-04-28T20:19:04.866Z,89.27
2023-04-28T20:21:31.726Z,89.30
2023-04-28T20:23:58.299Z,89.05
2023-04-28T20:26:24.770Z,89.29
2023-04-28T20:28:51.305Z,88.93
2023-04-28T20:31:17.832Z,89.06
2023-04-28T20:33:44.334Z,88.77
2023-04-28T20:36:12.801Z,88.31
2023-04-28T20:38:39.212Z,88.73
2023-04-28T20:41:07.630Z,89.07
2023-04-28T20:43:34.160Z,88.81
2023-04-28T20:46:00.657Z,88.30
2023-04-28T20:48:28.976Z,88.32
2023-04-28T20:50:56.440Z,88.09
2023-04-28T20:53:22.883Z,87.45
2023-04-28T20:55:50.052Z,87.45
2023-04-28T20:58:16.493Z,87.33
2023-04-28T21:00:44.011Z,87.31
2023-04-28T21:03:15.688Z,86.84
2023-04-28T21:05:44.647Z,86.48
2023-04-28T21:08:11.383Z,86.84
2023-04-28T21:10:38.304Z,86.77
2023-04-28T21:13:04.945Z,86.59
2023-04-28T21:15:37.377Z,86.40
2023-04-28T21:18:04.518Z,86.13
2023-04-28T21:20:31.110Z,85.60
2023-04-28T21:22:57.665Z,85.50
2023-04-28T21:25:25.068Z,85.44
2023-04-28T21:27:52.948Z,85.57
2023-04-28T21:30:20.752Z,85.54
2023-04-28T21:32:47.452Z,85.67
2023-04-28T21:35:14.277Z,86.00
2023-04-28T21:37:40.903Z,86.00
2023-04-28T21:40:08.923Z,85.52
2023-04-28T21:42:35.646Z,85.70
2023-04-28T21:45:02.043Z,85.48
2023-04-28T21:47:28.571Z,85.11
2023-04-28T21:49:55.209Z,84.79
2023-04-28T21:52:21.898Z,84.87
2023-04-28T21:54:48.439Z,84.78
2023-04-28T21:57:15.830Z,84.88
2023-04-28T21:59:42.450Z,85.23
2023-04-28T22:02:09.094Z,85.21
2023-04-28T22:04:35.720Z,85.26
2023-04-28T22:07:02.694Z,85.25
2023-04-28T22:09:29.176Z,85.22
2023-04-28T22:11:55.756Z,85.25
2023-04-28T22:14:39.553Z,85.29
2023-04-28T22:17:07.681Z,85.28
2023-04-28T22:19:34.167Z,84.99
2023-04-28T22:22:00.831Z,84.59
2023-04-28T22:24:27.913Z,85.00
2023-04-28T22:26:55.049Z,84.83
2023-04-28T22:29:21.785Z,84.39
2023-04-28T22:31:48.342Z,84.64
2023-04-28T22:34:14.926Z,84.89
2023-04-28T22:36:41.569Z,84.95
2023-04-28T22:39:08.328Z,84.62
2023-04-28T22:41:34.803Z,84.52
2023-04-28T22:44:01.211Z,84.82
2023-04-28T22:46:28.796Z,85.25
2023-04-28T22:48:55.543Z,85.81
2023-04-28T22:51:22.153Z,85.76
2023-04-28T22:53:48.633Z,85.31
2023-04-28T22:56:15.647Z,85.16
2023-04-28T22:58:42.130Z,85.45
2023-04-28T23:01:08.590Z,85.62
2023-04-28T23:03:35.143Z,85.92
2023-04-28T23:06:01.621Z,86.05
2023-04-28T23:08:28.054Z,85.84
2023-04-28T23:10:55.879Z,86.23
2023-04-28T23:13:22.244Z,86.22
2023-04-28T23:15:48.865Z,86.33
2023-04-28T23:18:15.381Z,86.44
2023-04-28T23:20:41.832Z,86.60
2023-04-28T23:23:08.518Z,86.52
2023-04-28T23:25:34.924Z,86.36
2023-04-28T23:28:01.387Z,86.89
2023-04-28T23:30:27.812Z,86.38
2023-04-28T23:32:54.256Z,86.63
2023-04-28T23:35:20.642Z,87.04
2023-04-28T23:37:47.277Z,86.39
2023-04-28T23:40:13.878Z,86.39
2023-04-28T23:42:41.047Z,86.08
2023-04-28T23:45:08.895Z,86.12
2023-04-28T23:47:35.472Z,85.69
2023-04-28T23:50:02.121Z,85.88
2023-04-28T23:52:28.580Z,86.30
2023-04-28T23:54:55.068Z,85.72
2023-04-28T23:57:21.506Z,86.00
2023-04-28T23:59:48.174Z,85.95
